Ashland, OR

8:47 PM PDT on September 03, 2015 (GMT -0700)
Rogue Valley International-Medford | Change Station
CLOSE
Current Station
Airport
Location: Medford,
Elevation: 1329 ft
Nearby Weather Stations

Elev 1329 ft 42.38 °N, 122.87 °W | Updated 54 minutes ago

Clear
Clear
66 °F
Feels Like 66 °F
N
9
Wind Variable Wind from North

Today
High -- | Low -- °F
--% Chance of Precip.
Yesterday
High -- | Low -- °F
Precip. -- in
6:37 AM 7:41 PM
Waning Gibbous, 64% visible
Pressure 29.90 in
Visibility 10.0 miles
Clouds Clear
Dew Point 35 °F
Humidity 32%
Rainfall 0.00 in
Snow Depth 0 in
UV 0 out of 12
Pollen 5.70 out of 12
Air Quality Not available.
Flu Activity Not available.
METAR KMFR 040253Z 35008KT 10SM CLR 19/02 A2991 RMK AO2 SLP125 T01890017 55001

More Conditions Fewer Conditions

Pressure 29.90 in
Visibility 10.0 miles
Clouds Clear
Dew Point 35 °F
Humidity 32%
Rainfall 0.00 in
Snow Depth 0 in
UV 0 out of 12
Pollen 5.70 out of 12
Air Quality Not available.
Flu Activity Not available.
METAR KMFR 040253Z 35008KT 10SM CLR 19/02 A2991 RMK AO2 SLP125 T01890017 55001

More Conditions Fewer Conditions

10-Day Weather Forecast

Almanac

Astronomy

Sep. 03, 2015 Rise Set
Actual Time 6:37 AM PDT 7:41 PM PDT
Civil Twilight 6:09 AM PDT 8:09 PM PDT
Nautical Twilight 5:34 AM PDT 8:43 PM PDT
Astronomical Twilight 4:59 AM PDT 9:19 PM PDT
Moon 11:03 PM PDT (9/3) 12:27 PM PDT (9/3)
Length of Visible Light 14h 00m
Length of Day
13h 03m
Tomorrow will be 2m 45s shorter.
Waning Gibbous, 64% of the Moon is Illuminated
Today
Waning Gibbous
Sep 5
Last Quarter
Sep 13
New
Sep 21
First Quarter
Sep 27
Full

Today's Extremes

State Highs State Lows

Community

WunderPhotos

Upload Photos

1,852,118 photos uploaded!

Nearby

Snow Depth

Station Depth Elevation
Fish Lake 0 in 4665 ft
Sevenmile Marsh 0 in 6200 ft
Diamond Lake 0 in 5315 ft
Crazyman Flat 0 in 6100 ft
New Crescent Lake 0 in 4800 ft

Earthquake Activity

City Distance Mag. Time & Date
No recent earthquake activity has been reported nearby.
Minimum magnitude displayed is 2.5.

Coastal Water Temperatures

Place Temperature
No Stations Reporting

Nearby Weather Stations